Time;durP1;ratioP1;P1;durP2;ratioP2;P2;SDS_P1;SDS_P2;PMS_P1;PMS_P2;Temp;Humidity;BMP_temperature;BMP_pressure;BME280_temperature;BME280_humidity;BME280_pressure;Samples;Min_cycle;Max_cycle;Signal;HPM_P1;HPM_P2
2023/02/09 00:00:48;;;;;;;3.70;3.40;;;;;19.00;102126.00;;;;2086942;28;20730;-50
2023/02/09 00:01:49;;;;;;;3.67;3.37;;;;;19.00;102118.00;;;;2087310;28;20216;-50
2023/02/09 00:02:49;;;;;;;4.00;3.70;;;;;19.00;102112.00;;;;2087372;28;20212;-50
2023/02/09 00:03:49;;;;;;;3.97;3.50;;;;;19.00;102110.00;;;;2086848;28;20248;-50
2023/02/09 00:04:50;;;;;;;3.80;3.50;;;;;19.00;102114.00;;;;2086356;28;20213;-50
2023/02/09 00:05:50;;;;;;;3.67;3.37;;;;;19.10;102117.00;;;;2086645;28;20218;-50
2023/02/09 00:06:50;;;;;;;3.47;3.17;;;;;19.00;102118.00;;;;2087140;28;20278;-50
2023/02/09 00:07:51;;;;;;;3.90;3.50;;;;;19.00;102111.00;;;;2086843;28;20274;-50
2023/02/09 00:08:51;;;;;;;4.30;3.50;;;;;19.00;102115.00;;;;2086799;28;20213;-50
2023/02/09 00:09:51;;;;;;;3.70;3.40;;;;;19.00;102104.00;;;;2086276;28;20224;-50
2023/02/09 00:10:52;;;;;;;3.33;3.03;;;;;19.00;102110.00;;;;2086352;28;20279;-50
2023/02/09 00:13:23;;;;;;;3.38;3.08;;;;;19.00;102105.00;;;;2087260;28;20217;-50
2023/02/09 00:14:23;;;;;;;3.45;3.15;;;;;19.00;102108.00;;;;2087129;28;20247;-50
2023/02/09 00:15:23;;;;;;;3.53;3.20;;;;;19.00;102102.00;;;;2087215;28;20232;-50
2023/02/09 00:16:24;;;;;;;3.43;3.13;;;;;19.00;102106.00;;;;2087196;28;20650;-50
2023/02/09 00:17:25;;;;;;;3.53;3.20;;;;;19.00;102103.00;;;;2086558;28;20220;-50
2023/02/09 00:18:25;;;;;;;5.50;4.23;;;;;18.90;102101.00;;;;2086268;28;20213;-51
2023/02/09 00:19:25;;;;;;;3.53;3.20;;;;;19.00;102096.00;;;;2086340;28;20223;-53
2023/02/09 00:20:26;;;;;;;3.60;3.30;;;;;19.00;102092.00;;;;2086936;28;20216;-53
2023/02/09 00:21:26;;;;;;;4.20;3.80;;;;;18.50;102091.00;;;;2087251;28;20205;-51
2023/02/09 00:22:26;;;;;;;4.53;3.67;;;;;19.00;102095.00;;;;2086534;28;20215;-50
2023/02/09 00:23:28;;;;;;;3.67;3.37;;;;;19.00;102095.00;;;;2087253;28;20213;-50
2023/02/09 00:24:28;;;;;;;4.18;3.75;;;;;18.90;102091.00;;;;2086988;28;20217;-50
2023/02/09 00:25:28;;;;;;;4.10;3.70;;;;;18.90;102089.00;;;;2086832;28;20618;-50
2023/02/09 00:26:29;;;;;;;3.80;3.50;;;;;18.90;102091.00;;;;2086760;28;20231;-50
2023/02/09 00:27:31;;;;;;;3.47;3.17;;;;;18.90;102085.00;;;;2086820;28;20274;-50
2023/02/09 00:28:31;;;;;;;3.88;3.58;;;;;18.90;102094.00;;;;2086119;28;20213;-50
2023/02/09 00:29:31;;;;;;;3.67;3.37;;;;;18.90;102098.00;;;;2087293;28;20247;-50
2023/02/09 00:30:32;;;;;;;3.70;3.40;;;;;18.90;102091.00;;;;2087128;28;20213;-50
2023/02/09 00:31:32;;;;;;;3.37;3.07;;;;;18.90;102099.00;;;;2086813;28;20738;-50
2023/02/09 00:32:32;;;;;;;3.80;3.50;;;;;18.90;102102.00;;;;2087168;28;20223;-50
2023/02/09 00:33:33;;;;;;;3.80;3.40;;;;;18.90;102100.00;;;;2086946;28;20216;-50
2023/02/09 00:34:33;;;;;;;3.80;3.40;;;;;18.90;102090.00;;;;2086352;28;20612;-50
2023/02/09 00:35:34;;;;;;;4.30;3.90;;;;;18.90;102097.00;;;;2085962;28;20213;-50
2023/02/09 00:36:34;;;;;;;4.13;3.70;;;;;18.90;102091.00;;;;2086907;28;20243;-50
2023/02/09 00:37:35;;;;;;;3.67;3.10;;;;;18.90;102087.00;;;;2087206;28;20209;-50
2023/02/09 00:38:35;;;;;;;4.00;3.60;;;;;18.90;102089.00;;;;2086182;28;20208;-50
2023/02/09 00:39:35;;;;;;;3.83;3.53;;;;;18.90;102084.00;;;;2087259;28;20231;-50
2023/02/09 00:40:36;;;;;;;3.70;3.40;;;;;18.90;102078.00;;;;2086810;28;20208;-50
2023/02/09 00:42:56;;;;;;;3.78;3.47;;;;;18.90;102080.00;;;;2087214;28;20244;-50
2023/02/09 00:43:56;;;;;;;3.83;3.43;;;;;18.90;102081.00;;;;2086423;28;20213;-50
2023/02/09 00:44:56;;;;;;;4.37;3.60;;;;;18.90;102089.00;;;;2087020;28;20298;-50
2023/02/09 00:45:56;;;;;;;3.23;2.90;;;;;18.90;102078.00;;;;2087121;28;20205;-50
2023/02/09 00:46:57;;;;;;;3.87;3.57;;;;;18.90;102083.00;;;;2087233;28;20216;-50
2023/02/09 00:47:57;;;;;;;3.90;3.50;;;;;18.90;102083.00;;;;2086190;28;20216;-50
2023/02/09 00:48:57;;;;;;;4.17;3.77;;;;;18.90;102076.00;;;;2087037;28;20295;-50
2023/02/09 00:49:58;;;;;;;3.63;3.37;;;;;18.90;102080.00;;;;2086993;28;20342;-50
2023/02/09 00:50:58;;;;;;;4.63;3.87;;;;;18.90;102068.00;;;;2076122;28;20224;-50
2023/02/09 00:51:59;;;;;;;3.77;3.40;;;;;18.90;102074.00;;;;2086559;28;20216;-50
2023/02/09 00:52:59;;;;;;;4.33;3.43;;;;;18.90;102070.00;;;;2087193;28;20576;-50
2023/02/09 00:53:59;;;;;;;3.47;3.17;;;;;18.90;102067.00;;;;2086502;28;20235;-50
2023/02/09 00:54:59;;;;;;;4.27;3.87;;;;;18.90;102068.00;;;;2086664;28;20223;-50
2023/02/09 00:56:00;;;;;;;3.67;3.37;;;;;18.80;102072.00;;;;2085919;28;20227;-50
2023/02/09 00:57:04;;;;;;;3.93;3.63;;;;;18.80;102074.00;;;;2086203;28;20235;-50
2023/02/09 00:58:04;;;;;;;4.20;3.80;;;;;18.80;102075.00;;;;2085520;28;20265;-50
2023/02/09 00:59:04;;;;;;;4.13;3.73;;;;;18.80;102060.00;;;;2086986;28;20243;-50
2023/02/09 01:00:05;;;;;;;3.90;3.60;;;;;18.80;102066.00;;;;2086858;28;20215;-50
2023/02/09 01:01:05;;;;;;;4.17;3.80;;;;;18.80;102072.00;;;;2086852;28;20220;-50
2023/02/09 01:02:06;;;;;;;3.97;3.60;;;;;18.80;102067.00;;;;2077867;28;20784;-50
2023/02/09 01:03:06;;;;;;;4.00;3.60;;;;;18.80;102057.00;;;;2076993;28;20216;-50
2023/02/09 01:04:06;;;;;;;4.80;4.20;;;;;18.80;102069.00;;;;2086464;28;20212;-50
2023/02/09 01:05:07;;;;;;;3.90;3.37;;;;;18.80;102059.00;;;;2086519;28;20299;-50
2023/02/09 01:06:08;;;;;;;4.13;3.73;;;;;18.80;102065.00;;;;2085281;28;20242;-49
2023/02/09 01:07:08;;;;;;;4.00;3.60;;;;;18.80;102064.00;;;;2085254;28;20216;-50
2023/02/09 01:08:08;;;;;;;4.47;3.53;;;;;18.80;102066.00;;;;2085135;28;20478;-50
2023/02/09 01:09:09;;;;;;;3.63;3.33;;;;;18.80;102070.00;;;;2086533;28;20209;-51
2023/02/09 01:10:09;;;;;;;4.23;3.83;;;;;18.80;102052.00;;;;2087317;28;20235;-51
2023/02/09 01:11:11;;;;;;;4.10;3.73;;;;;18.80;102079.00;;;;2086883;28;20208;-50
2023/02/09 01:12:11;;;;;;;3.97;3.67;;;;;18.80;102069.00;;;;2087278;28;20728;-51
2023/02/09 01:13:11;;;;;;;4.17;3.77;;;;;18.80;102079.00;;;;2088171;28;20303;-50
2023/02/09 01:14:12;;;;;;;4.40;4.00;;;;;18.80;102075.00;;;;2086857;28;20222;-51
2023/02/09 01:15:12;;;;;;;4.63;4.13;;;;;18.80;102071.00;;;;2086981;28;20240;-50
2023/02/09 01:16:14;;;;;;;3.50;3.20;;;;;18.80;102084.00;;;;2088021;28;20224;-51
2023/02/09 01:17:14;;;;;;;3.78;3.47;;;;;18.80;102078.00;;;;2088504;28;20220;-50
2023/02/09 01:18:15;;;;;;;4.10;3.70;;;;;18.80;102075.00;;;;2087441;28;20250;-51
2023/02/09 01:19:15;;;;;;;4.40;3.70;;;;;18.80;102072.00;;;;2087185;28;20247;-50
2023/02/09 01:20:15;;;;;;;3.93;3.53;;;;;18.80;102074.00;;;;2088456;28;20284;-50
2023/02/09 01:21:18;;;;;;;4.20;3.80;;;;;18.80;102069.00;;;;2088408;28;20287;-51
2023/02/09 01:22:18;;;;;;;4.60;3.85;;;;;18.80;102068.00;;;;2087305;28;20684;-50
2023/02/09 01:23:18;;;;;;;4.20;3.80;;;;;18.80;102068.00;;;;2088580;28;20224;-51
2023/02/09 01:24:19;;;;;;;4.03;3.63;;;;;18.80;102064.00;;;;2088085;28;20205;-50
2023/02/09 01:25:19;;;;;;;4.57;4.17;;;;;18.80;102066.00;;;;2088294;28;20212;-50
2023/02/09 01:26:19;;;;;;;4.07;3.67;;;;;18.80;102061.00;;;;2087572;28;20766;-50
2023/02/09 01:27:20;;;;;;;3.73;3.43;;;;;18.80;102065.00;;;;2087633;28;20715;-50
2023/02/09 01:28:20;;;;;;;3.97;3.67;;;;;18.80;102059.00;;;;2087257;28;20641;-50
2023/02/09 01:29:20;;;;;;;4.20;3.80;;;;;18.80;102059.00;;;;2088459;28;20232;-51
2023/02/09 01:30:21;;;;;;;3.90;3.60;;;;;18.70;102061.00;;;;2088552;28;20754;-50
2023/02/09 01:31:30;;;;;;;4.00;3.63;;;;;18.70;102057.00;;;;2088350;28;20209;-50
2023/02/09 01:32:30;;;;;;;4.15;3.78;;;;;18.80;102058.00;;;;2087705;28;20215;-50
2023/02/09 01:33:31;;;;;;;4.23;3.30;;;;;18.70;102061.00;;;;2087595;28;20231;-50
2023/02/09 01:34:31;;;;;;;4.50;4.10;;;;;18.70;102070.00;;;;2088160;28;20227;-50
2023/02/09 01:35:31;;;;;;;4.23;3.83;;;;;18.70;102065.00;;;;2087854;28;20224;-50
2023/02/09 01:36:32;;;;;;;4.27;3.83;;;;;18.30;102065.00;;;;2088186;28;20976;-50
2023/02/09 01:37:33;;;;;;;3.60;3.30;;;;;18.70;102072.00;;;;2088425;28;20778;-50
2023/02/09 01:38:33;;;;;;;4.30;3.90;;;;;18.80;102069.00;;;;2087225;28;20220;-50
2023/02/09 01:39:33;;;;;;;4.00;3.60;;;;;18.70;102063.00;;;;2088384;28;20216;-50
2023/02/09 01:40:34;;;;;;;3.83;3.53;;;;;18.70;102063.00;;;;2088031;28;20270;-50
2023/02/09 01:41:34;;;;;;;4.07;3.67;;;;;18.70;102070.00;;;;2088467;28;20274;-50
2023/02/09 01:42:35;;;;;;;3.87;3.50;;;;;18.70;102071.00;;;;2080372;28;20221;-50
2023/02/09 01:43:56;;;;;;;4.33;3.93;;;;;18.70;102066.00;;;;2088220;28;20213;-50
2023/02/09 01:45:00;;;;;;;3.97;3.58;;;;;18.70;102059.00;;;;2087810;28;20232;-50
2023/02/09 01:46:01;;;;;;;4.60;4.13;;;;;18.70;102065.00;;;;2088237;28;20224;-51
2023/02/09 01:47:01;;;;;;;4.03;3.63;;;;;18.70;102070.00;;;;2088196;28;20715;-51
2023/02/09 01:48:02;;;;;;;4.20;3.80;;;;;18.60;102047.00;;;;2088166;28;20672;-50
2023/02/09 01:49:25;;;;;;;3.97;3.67;;;;;18.70;102039.00;;;;2088401;28;20681;-51
2023/02/09 01:50:26;;;;;;;4.20;3.88;;;;;18.70;102058.00;;;;2083081;28;21036;-50
2023/02/09 01:51:26;;;;;;;4.27;3.87;;;;;18.70;102052.00;;;;2088361;28;20205;-51
2023/02/09 01:52:27;;;;;;;4.70;4.30;;;;;18.70;102058.00;;;;2087467;28;20482;-51
2023/02/09 01:53:27;;;;;;;4.60;3.43;;;;;18.70;101987.00;;;;2071573;28;20206;-51
2023/02/09 01:54:38;;;;;;;4.33;3.93;;;;;18.70;102060.00;;;;2080069;28;21016;-50
2023/02/09 01:55:45;;;;;;;4.43;3.95;;;;;18.70;102062.00;;;;2087853;28;20219;-50
2023/02/09 01:56:47;;;;;;;3.38;3.08;;;;;18.70;102066.00;;;;2081002;28;20223;-50
2023/02/09 01:57:59;;;;;;;4.25;3.88;;;;;18.70;102066.00;;;;2079915;28;20781;-50
2023/02/09 01:58:59;;;;;;;4.10;3.70;;;;;18.70;102065.00;;;;2088447;28;20236;-51
2023/02/09 02:00:20;;;;;;;4.30;3.90;;;;;18.70;102065.00;;;;2088459;28;20268;-50
2023/02/09 02:01:21;;;;;;;4.20;3.90;;;;;18.70;102071.00;;;;2086738;28;20720;-51
2023/02/09 02:02:21;;;;;;;4.30;3.90;;;;;18.70;102060.00;;;;2087749;28;20215;-50
2023/02/09 02:03:23;;;;;;;4.10;3.70;;;;;18.70;102061.00;;;;2079271;28;20212;-50
2023/02/09 02:04:23;;;;;;;4.07;3.65;;;;;18.70;102051.00;;;;2072063;28;20241;-51
2023/02/09 02:05:23;;;;;;;4.23;3.83;;;;;18.70;102058.00;;;;2071989;28;20221;-51
2023/02/09 02:06:24;;;;;;;3.90;3.60;;;;;18.70;102065.00;;;;2087786;28;21025;-51
2023/02/09 02:07:27;;;;;;;4.77;4.27;;;;;18.70;102057.00;;;;2088386;28;20227;-51
2023/02/09 02:08:37;;;;;;;4.47;4.07;;;;;18.70;102043.00;;;;2079020;28;20221;-51
2023/02/09 02:09:37;;;;;;;4.70;4.20;;;;;18.70;102053.00;;;;2073226;28;20227;-51
2023/02/09 02:10:37;;;;;;;4.47;4.07;;;;;18.70;102058.00;;;;2080501;28;20221;-51
2023/02/09 02:11:38;;;;;;;4.80;4.40;;;;;18.70;102056.00;;;;2088982;28;20274;-50
2023/02/09 02:12:39;;;;;;;4.50;4.05;;;;;18.70;102056.00;;;;2080078;28;20240;-51
2023/02/09 02:13:39;;;;;;;4.80;4.30;;;;;18.60;102055.00;;;;2071563;28;20766;-51
2023/02/09 02:14:39;;;;;;;4.30;3.90;;;;;18.60;102049.00;;;;2087876;28;20993;-51
2023/02/09 02:15:54;;;;;;;4.53;4.13;;;;;18.60;101973.00;;;;2088626;28;20220;-51
2023/02/09 02:17:18;;;;;;;5.55;4.03;;;;;18.60;102018.00;;;;2079991;28;20717;-51
2023/02/09 02:18:36;;;;;;;4.45;4.05;;;;;18.60;102044.00;;;;2078379;28;20246;-50
2023/02/09 02:20:00;;;;;;;3.90;3.50;;;;;18.60;102048.00;;;;2085231;28;20227;-51
2023/02/09 02:21:19;;;;;;;4.60;3.80;;;;;18.60;102039.00;;;;2087632;28;20746;-51
2023/02/09 02:22:25;;;;;;;4.80;4.10;;;;;18.60;102047.00;;;;2087937;28;20316;-50
2023/02/09 02:23:47;;;;;;;4.47;4.05;;;;;18.60;102048.00;;;;2088421;28;20213;-50
2023/02/09 02:25:13;;;;;;;4.40;4.00;;;;;18.60;102054.00;;;;2088242;28;20220;-50
2023/02/09 02:26:39;;;;;;;4.38;3.97;;;;;18.60;102057.00;;;;2084773;28;20227;-50
2023/02/09 02:28:13;;;;;;;4.43;3.88;;;;;18.60;102082.00;;;;2087825;28;20262;-51
2023/02/09 02:29:32;;;;;;;4.05;3.72;;;;;18.60;102043.00;;;;2083919;28;20273;-50
2023/02/09 02:30:56;;;;;;;4.63;4.20;;;;;18.60;102048.00;;;;2088228;28;20415;-51
2023/02/09 02:32:25;;;;;;;4.72;4.18;;;;;18.60;102047.00;;;;2087946;28;20247;-51
2023/02/09 02:33:32;;;;;;;4.60;3.90;;;;;18.60;102039.00;;;;2075318;28;20224;-50
2023/02/09 02:34:40;;;;;;;5.20;4.70;;;;;18.60;102040.00;;;;2074289;28;20209;-51
2023/02/09 02:35:58;;;;;;;4.68;4.20;;;;;18.60;102039.00;;;;2080188;28;20217;-51
2023/02/09 02:37:38;;;;;;;4.75;4.25;;;;;18.60;102034.00;;;;2081745;28;20227;-51
2023/02/09 02:38:45;;;;;;;4.45;3.80;;;;;18.60;102045.00;;;;2084795;28;20208;-50
2023/02/09 02:39:53;;;;;;;4.82;4.32;;;;;18.60;102045.00;;;;2074278;28;20223;-51
2023/02/09 02:41:17;;;;;;;4.10;3.70;;;;;18.60;102052.00;;;;2073346;28;20214;-50
2023/02/09 02:43:50;;;;;;;4.15;3.75;;;;;18.60;102054.00;;;;2084566;28;20594;-51
2023/02/09 02:45:02;;;;;;;4.22;3.83;;;;;18.60;102039.00;;;;2088021;28;20213;-51
2023/02/09 02:46:31;;;;;;;4.25;3.85;;;;;18.60;102060.00;;;;2079081;28;20212;-50
2023/02/09 02:47:32;;;;;;;4.57;4.05;;;;;18.60;102053.00;;;;2063846;28;20213;-51
2023/02/09 02:48:38;;;;;;;4.20;3.80;;;;;18.60;102056.00;;;;2068881;28;20685;-51
2023/02/09 02:49:44;;;;;;;3.70;3.40;;;;;18.60;102058.00;;;;2080381;28;21138;-51
2023/02/09 02:50:52;;;;;;;5.15;4.65;;;;;18.50;102057.00;;;;2072713;28;20217;-51
2023/02/09 02:51:53;;;;;;;4.47;4.07;;;;;18.60;102058.00;;;;2072979;28;20213;-50
2023/02/09 02:52:55;;;;;;;4.68;4.18;;;;;18.50;102054.00;;;;2070010;28;20861;-51
2023/02/09 02:53:56;;;;;;;4.40;4.00;;;;;18.60;102060.00;;;;2070983;28;20316;-51
2023/02/09 02:55:03;;;;;;;3.85;3.55;;;;;18.50;102051.00;;;;2087888;28;20209;-50
2023/02/09 02:56:13;;;;;;;4.45;4.05;;;;;18.50;102052.00;;;;2087348;28;20224;-51
2023/02/09 02:57:18;;;;;;;4.05;3.72;;;;;18.50;102056.00;;;;2072876;28;20236;-50
2023/02/09 02:58:18;;;;;;;4.72;3.95;;;;;18.50;102055.00;;;;2071974;28;20221;-51
2023/02/09 02:59:22;;;;;;;4.63;4.13;;;;;18.50;102058.00;;;;2079359;28;20570;-51
2023/02/09 03:00:26;;;;;;;4.40;4.00;;;;;18.60;102061.00;;;;2071339;28;20208;-51
2023/02/09 03:01:31;;;;;;;4.88;4.40;;;;;18.50;102030.00;;;;2072306;28;20887;-50
2023/02/09 03:02:34;;;;;;;5.15;4.68;;;;;18.50;102063.00;;;;2072067;28;20217;-51
2023/02/09 03:03:34;;;;;;;3.90;3.50;;;;;18.50;102051.00;;;;2072329;28;20749;-51
2023/02/09 03:04:34;;;;;;;4.83;4.27;;;;;18.50;102019.00;;;;2079515;28;20224;-50
2023/02/09 03:05:35;;;;;;;4.47;4.07;;;;;18.50;102054.00;;;;2070826;28;20217;-51
2023/02/09 03:06:36;;;;;;;4.80;4.23;;;;;18.50;102043.00;;;;2070926;28;20268;-50
2023/02/09 03:07:36;;;;;;;4.40;4.00;;;;;18.50;102034.00;;;;2087824;28;20219;-51
2023/02/09 03:08:55;;;;;;;4.70;4.30;;;;;18.50;102051.00;;;;2087417;28;20620;-51
2023/02/09 03:09:56;;;;;;;5.15;4.13;;;;;18.50;102051.00;;;;2088426;28;20216;-51
2023/02/09 03:10:56;;;;;;;4.70;4.20;;;;;18.50;102038.00;;;;2088252;28;20216;-51
2023/02/09 03:11:59;;;;;;;4.90;4.40;;;;;18.50;102045.00;;;;2087504;28;20245;-51
2023/02/09 03:13:21;;;;;;;5.55;4.90;;;;;18.50;102048.00;;;;2071422;28;20217;-51
2023/02/09 03:14:46;;;;;;;4.95;4.45;;;;;18.50;102044.00;;;;2076995;28;20256;-51
2023/02/09 03:16:05;;;;;;;4.50;4.10;;;;;18.50;102043.00;;;;2087219;28;20307;-51
2023/02/09 03:17:29;;;;;;;5.15;4.25;;;;;18.50;102042.00;;;;2087825;28;20212;-51
2023/02/09 03:18:54;;;;;;;5.28;4.78;;;;;18.50;102040.00;;;;2087059;28;20219;-51
2023/02/09 03:20:07;;;;;;;4.30;3.90;;;;;18.50;102041.00;;;;2087701;28;20224;-50
2023/02/09 03:21:14;;;;;;;4.60;4.20;;;;;18.50;102039.00;;;;2087390;28;20655;-51
2023/02/09 03:22:29;;;;;;;4.60;4.18;;;;;18.50;102030.00;;;;2063698;28;20233;-50
2023/02/09 03:23:31;;;;;;;4.13;3.72;;;;;18.50;102030.00;;;;2060561;28;20293;-50
2023/02/09 03:24:42;;;;;;;4.70;4.30;;;;;18.50;102035.00;;;;2081098;28;20213;-50
2023/02/09 03:25:44;;;;;;;5.65;4.60;;;;;18.50;102031.00;;;;2088095;28;20212;-51
2023/02/09 03:26:48;;;;;;;4.70;4.30;;;;;18.50;102025.00;;;;2079250;28;20216;-50
2023/02/09 03:28:11;;;;;;;4.47;4.05;;;;;18.50;102034.00;;;;2063943;28;20219;-50
2023/02/09 03:29:11;;;;;;;5.05;4.55;;;;;18.50;102038.00;;;;2069023;28;20233;-51
2023/02/09 03:30:12;;;;;;;4.70;4.20;;;;;18.50;102039.00;;;;2072750;28;20214;-51
2023/02/09 03:31:13;;;;;;;4.95;4.55;;;;;18.50;102020.00;;;;2071199;28;20644;-50
2023/02/09 03:32:14;;;;;;;4.90;4.40;;;;;18.50;102038.00;;;;2063076;28;20297;-51
2023/02/09 03:33:19;;;;;;;4.85;4.38;;;;;18.50;102050.00;;;;2078579;28;20217;-50
2023/02/09 03:34:20;;;;;;;5.05;4.45;;;;;18.50;102034.00;;;;2070787;28;20300;-50
2023/02/09 03:35:21;;;;;;;4.83;4.33;;;;;18.50;102034.00;;;;2078701;28;20220;-50
2023/02/09 03:36:21;;;;;;;4.90;4.40;;;;;18.50;102020.00;;;;2086575;28;20307;-50
2023/02/09 03:37:22;;;;;;;4.60;4.20;;;;;18.40;102016.00;;;;2078274;28;20221;-50
2023/02/09 03:38:22;;;;;;;4.70;4.30;;;;;18.40;102034.00;;;;2077171;28;20243;-50
2023/02/09 03:39:23;;;;;;;4.30;3.90;;;;;18.40;102036.00;;;;2086559;28;20323;-51
2023/02/09 03:40:23;;;;;;;4.80;4.40;;;;;18.50;102045.00;;;;2087112;28;20223;-50
2023/02/09 03:41:24;;;;;;;4.50;4.10;;;;;18.40;102049.00;;;;2087296;28;20235;-50
2023/02/09 03:42:24;;;;;;;4.67;4.27;;;;;18.50;102046.00;;;;2087305;28;20243;-51
2023/02/09 03:44:25;;;;;;;4.60;4.07;;;;;18.50;102049.00;;;;2087330;28;20227;-50
2023/02/09 03:44:44;;;;;;;4.25;3.85;;;;;18.50;102048.00;;;;2087023;28;20216;-49
2023/02/09 03:45:45;;;;;;;4.97;4.47;;;;;18.40;102047.00;;;;2086968;28;20235;-49
2023/02/09 03:46:45;;;;;;;4.70;4.30;;;;;18.40;102038.00;;;;2087397;28;20299;-50
2023/02/09 03:47:46;;;;;;;4.43;4.03;;;;;18.50;102031.00;;;;2087314;28;20211;-50
2023/02/09 03:48:46;;;;;;;5.03;4.20;;;;;18.50;102035.00;;;;2086291;28;20215;-50
2023/02/09 03:49:47;;;;;;;6.10;4.77;;;;;18.50;102035.00;;;;2086901;28;20220;-51
2023/02/09 03:50:47;;;;;;;4.80;4.30;;;;;18.40;102025.00;;;;2087345;28;20223;-50
2023/02/09 03:51:47;;;;;;;5.00;4.50;;;;;18.40;102024.00;;;;2087362;28;20225;-50
2023/02/09 03:52:48;;;;;;;4.60;4.20;;;;;18.40;102035.00;;;;2086416;28;20401;-50
2023/02/09 03:53:48;;;;;;;5.30;4.57;;;;;18.40;102029.00;;;;2086201;28;20234;-50
2023/02/09 03:54:48;;;;;;;4.83;4.30;;;;;18.40;102030.00;;;;2085499;28;20685;-50
2023/02/09 03:55:48;;;;;;;5.17;4.67;;;;;18.40;102028.00;;;;2086266;28;20838;-50
2023/02/09 03:56:49;;;;;;;4.90;4.40;;;;;18.40;102035.00;;;;2078174;28;20835;-51
2023/02/09 03:57:49;;;;;;;4.70;4.03;;;;;18.40;102038.00;;;;2086367;28;20748;-49
2023/02/09 03:58:50;;;;;;;4.93;4.47;;;;;18.40;102025.00;;;;2086470;28;20726;-50
2023/02/09 03:59:50;;;;;;;5.10;4.33;;;;;18.40;102027.00;;;;2087177;28;20224;-50
2023/02/09 04:00:51;;;;;;;5.40;4.47;;;;;18.40;102012.00;;;;2086726;28;20256;-50
2023/02/09 04:01:52;;;;;;;5.13;4.30;;;;;18.40;102017.00;;;;2087368;28;20216;-50
2023/02/09 04:02:52;;;;;;;5.00;4.50;;;;;18.40;102017.00;;;;2086395;28;20220;-50
2023/02/09 04:03:53;;;;;;;4.30;3.90;;;;;18.40;102023.00;;;;2086258;28;20951;-50
2023/02/09 04:04:53;;;;;;;4.90;4.50;;;;;18.40;101883.00;;;;2087111;28;20231;-50
2023/02/09 04:05:53;;;;;;;5.17;4.67;;;;;18.40;101921.00;;;;2086925;28;20957;-49
2023/02/09 04:06:54;;;;;;;5.00;4.60;;;;;18.40;102015.00;;;;2086948;28;20262;-50
2023/02/09 04:07:59;;;;;;;4.70;4.25;;;;;18.40;102001.00;;;;2086680;28;20216;-50
2023/02/09 04:08:59;;;;;;;4.88;4.40;;;;;18.40;102008.00;;;;2087079;28;20238;-50
2023/02/09 04:10:00;;;;;;;5.40;4.90;;;;;18.40;102017.00;;;;2086889;28;20227;-50
2023/02/09 04:11:00;;;;;;;5.70;5.13;;;;;18.40;102010.00;;;;2086820;28;20227;-50
2023/02/09 04:12:00;;;;;;;6.07;4.70;;;;;18.40;102007.00;;;;2087265;28;20269;-50
2023/02/09 04:13:01;;;;;;;4.70;4.30;;;;;18.40;102011.00;;;;2086284;28;20212;-50
2023/02/09 04:14:01;;;;;;;5.17;4.67;;;;;18.40;102014.00;;;;2085761;28;20266;-50
2023/02/09 04:15:02;;;;;;;5.03;4.53;;;;;18.40;102006.00;;;;2086246;28;20273;-50
2023/02/09 04:16:03;;;;;;;5.37;4.87;;;;;18.40;102002.00;;;;2086051;28;20857;-50
2023/02/09 04:17:07;;;;;;;5.00;4.50;;;;;18.40;102011.00;;;;2084108;28;20242;-51
2023/02/09 04:18:09;;;;;;;5.10;4.60;;;;;18.40;102009.00;;;;2075314;28;20550;-50
2023/02/09 04:19:10;;;;;;;4.55;4.13;;;;;18.40;102006.00;;;;2077525;28;20221;-50
2023/02/09 04:20:10;;;;;;;5.00;4.50;;;;;18.40;102004.00;;;;2086026;28;20223;-51
2023/02/09 04:21:11;;;;;;;5.97;5.47;;;;;18.40;102011.00;;;;2077323;28;20467;-50
2023/02/09 04:22:12;;;;;;;4.40;4.00;;;;;18.30;102010.00;;;;2078193;28;20255;-51
2023/02/09 04:23:12;;;;;;;5.47;4.97;;;;;18.40;102010.00;;;;2085066;28;20212;-50
2023/02/09 04:24:12;;;;;;;5.03;4.53;;;;;18.40;102013.00;;;;2086412;28;20288;-51
2023/02/09 04:25:13;;;;;;;4.50;4.10;;;;;18.30;102003.00;;;;2086918;28;20240;-50
2023/02/09 04:26:13;;;;;;;5.80;5.30;;;;;18.30;102008.00;;;;2085086;28;20215;-50
2023/02/09 04:27:13;;;;;;;5.50;5.00;;;;;18.30;102001.00;;;;2085516;28;20236;-50
2023/02/09 04:28:14;;;;;;;4.70;4.30;;;;;18.30;102006.00;;;;2084922;28;20212;-50
2023/02/09 04:29:14;;;;;;;4.97;4.57;;;;;18.30;102005.00;;;;2081367;28;20217;-51
2023/02/09 04:30:14;;;;;;;4.93;4.43;;;;;18.30;102003.00;;;;2083209;28;20224;-50
2023/02/09 04:31:16;;;;;;;5.17;4.77;;;;;18.30;101999.00;;;;2086031;28;20225;-50
2023/02/09 04:32:16;;;;;;;4.85;4.45;;;;;18.30;102003.00;;;;2085889;28;20738;-50
2023/02/09 04:33:16;;;;;;;5.13;4.27;;;;;18.30;102002.00;;;;2084322;28;20220;-50
2023/02/09 04:34:17;;;;;;;5.27;4.77;;;;;18.30;101996.00;;;;2084424;28;20225;-49
2023/02/09 04:35:17;;;;;;;4.70;4.30;;;;;18.30;102002.00;;;;2085976;28;20205;-50
2023/02/09 04:36:17;;;;;;;4.90;4.40;;;;;18.30;101997.00;;;;2086172;28;20227;-51
2023/02/09 04:37:18;;;;;;;7.10;5.13;;;;;18.30;102001.00;;;;2085934;28;20212;-50
2023/02/09 04:38:19;;;;;;;4.67;4.27;;;;;18.30;101999.00;;;;2085733;28;20217;-50
2023/02/09 04:39:19;;;;;;;5.22;4.80;;;;;18.30;101992.00;;;;2086970;28;20269;-50
2023/02/09 04:40:20;;;;;;;4.30;3.90;;;;;18.30;101997.00;;;;2086898;28;20212;-50
2023/02/09 04:41:23;;;;;;;5.00;4.60;;;;;17.60;101992.00;;;;2085505;28;20292;-49
2023/02/09 04:42:23;;;;;;;4.82;4.38;;;;;18.30;101998.00;;;;2086029;28;20490;-50
2023/02/09 04:43:24;;;;;;;5.10;4.70;;;;;18.30;101991.00;;;;2086164;28;20366;-50
2023/02/09 04:44:24;;;;;;;4.80;4.40;;;;;18.00;101984.00;;;;2084783;28;20295;-50
2023/02/09 04:45:26;;;;;;;5.10;4.60;;;;;18.30;101984.00;;;;2086668;28;20220;-50
2023/02/09 04:46:27;;;;;;;5.80;5.20;;;;;18.30;101984.00;;;;2077783;28;20212;-50
2023/02/09 04:47:27;;;;;;;6.00;5.03;;;;;18.30;101983.00;;;;2078012;28;20643;-50
2023/02/09 04:48:28;;;;;;;5.33;4.57;;;;;18.30;101983.00;;;;2085746;28;20293;-50
2023/02/09 04:49:28;;;;;;;4.77;4.37;;;;;18.30;101989.00;;;;2086629;28;20305;-50
2023/02/09 04:50:28;;;;;;;4.50;4.10;;;;;18.30;101984.00;;;;2083199;28;20315;-49
2023/02/09 04:51:28;;;;;;;5.10;4.60;;;;;18.30;101981.00;;;;2086629;28;20222;-50
2023/02/09 04:52:29;;;;;;;5.60;5.00;;;;;18.30;101999.00;;;;2086072;28;20223;-50
2023/02/09 04:53:29;;;;;;;4.90;4.40;;;;;18.30;101986.00;;;;2085907;28;20767;-50
2023/02/09 04:54:29;;;;;;;5.60;5.10;;;;;18.30;101975.00;;;;2077804;28;20704;-50
2023/02/09 04:55:30;;;;;;;4.57;4.17;;;;;18.30;101982.00;;;;2086176;28;20292;-50
2023/02/09 04:56:30;;;;;;;5.00;4.50;;;;;18.30;101981.00;;;;2086624;28;20228;-50
2023/02/09 05:00:09;;;;;;;5.47;5.00;;;;;18.30;101970.00;;;;2086887;28;20694;-50
2023/02/09 05:01:11;;;;;;;6.13;5.60;;;;;18.30;101979.00;;;;2084880;28;20216;-51
2023/02/09 05:02:11;;;;;;;5.38;4.88;;;;;18.30;101977.00;;;;2082073;28;20232;-51
2023/02/09 05:03:12;;;;;;;5.73;5.23;;;;;18.30;101970.00;;;;2086205;28;20212;-50
2023/02/09 05:04:12;;;;;;;5.10;4.60;;;;;18.30;101980.00;;;;2086464;28;20320;-50
2023/02/09 05:05:12;;;;;;;5.37;4.87;;;;;18.30;101982.00;;;;2082229;28;20216;-49
2023/02/09 05:06:13;;;;;;;5.23;4.30;;;;;18.30;101974.00;;;;2086876;28;20207;-50
2023/02/09 05:07:13;;;;;;;5.43;4.90;;;;;18.30;101979.00;;;;2086980;28;20261;-49
2023/02/09 05:08:14;;;;;;;4.90;4.50;;;;;18.30;101977.00;;;;2086055;28;20261;-50
2023/02/09 05:09:15;;;;;;;5.23;4.73;;;;;18.30;101970.00;;;;2086902;28;20229;-50
2023/02/09 05:10:16;;;;;;;5.25;4.82;;;;;18.30;101974.00;;;;2080637;28;20229;-50
2023/02/09 05:11:17;;;;;;;5.43;4.93;;;;;18.30;101986.00;;;;2093980;28;20215;-49
2023/02/09 05:12:18;;;;;;;6.00;5.40;;;;;18.30;101984.00;;;;2089427;28;20572;-49
2023/02/09 05:13:19;;;;;;;5.25;4.75;;;;;18.30;101980.00;;;;2085126;28;20638;-49
2023/02/09 05:14:19;;;;;;;5.22;4.72;;;;;18.30;101978.00;;;;2084381;28;20216;-49
2023/02/09 05:15:19;;;;;;;4.90;4.40;;;;;18.30;101974.00;;;;2085686;28;20231;-49
2023/02/09 05:16:20;;;;;;;5.73;5.23;;;;;18.20;101983.00;;;;2085866;28;20236;-49
2023/02/09 05:17:20;;;;;;;4.73;4.33;;;;;18.20;101977.00;;;;2086288;28;20315;-49
2023/02/09 05:18:21;;;;;;;5.60;4.80;;;;;18.30;101974.00;;;;2084903;28;20220;-50
2023/02/09 05:19:21;;;;;;;4.60;4.20;;;;;18.30;101986.00;;;;2086194;28;20239;-49
2023/02/09 05:20:21;;;;;;;5.30;4.80;;;;;18.30;101987.00;;;;2084836;28;20227;-50